Time;durP1;ratioP1;P1;durP2;ratioP2;P2;SDS_P1;SDS_P2;PMS_P1;PMS_P2;Temp;Humidity;BMP_temperature;BMP_pressure;BME280_temperature;BME280_humidity;BME280_pressure;Samples;Min_cycle;Max_cycle;Signal;HPM_P1;HPM_P2
2022/01/29 00:00:33;;;;;;;20.13;6.40;;;5.00;99.90;;;;;;4989186;28;20045;-70
2022/01/29 00:02:59;;;;;;;16.10;7.00;;;5.00;99.90;;;;;;4986742;28;20096;-70
2022/01/29 00:05:24;;;;;;;;;;;5.00;99.90;;;;;;4989269;28;20391;-69
2022/01/29 00:07:50;;;;;;;20.25;6.55;;;5.00;99.90;;;;;;4989942;28;20016;-69
2022/01/29 00:10:15;;;;;;;12.85;6.07;;;5.00;99.90;;;;;;4985834;28;20022;-70
2022/01/29 00:12:42;;;;;;;21.08;6.88;;;5.00;99.90;;;;;;4988854;28;20505;-70
2022/01/29 00:15:08;;;;;;;20.25;6.20;;;5.00;99.90;;;;;;4986353;28;20504;-70
2022/01/29 00:17:33;;;;;;;18.92;6.68;;;5.00;99.90;;;;;;4990003;28;20030;-70
2022/01/29 00:19:59;;;;;;;;;;;5.00;99.90;;;;;;4989272;28;20045;-70
2022/01/29 00:22:25;;;;;;;21.30;6.40;;;5.00;99.90;;;;;;4987829;28;20379;-70
2022/01/29 00:24:50;;;;;;;;;;;5.00;99.90;;;;;;4988477;28;20061;-70
2022/01/29 00:27:18;;;;;;;11.85;6.25;;;5.00;99.90;;;;;;4989629;28;19944;-69
2022/01/29 00:29:44;;;;;;;19.73;6.55;;;5.00;99.90;;;;;;4986389;28;20056;-70
2022/01/29 00:32:11;;;;;;;20.48;7.55;;;5.10;99.90;;;;;;4986635;28;20034;-70
2022/01/29 00:34:37;;;;;;;24.35;7.70;;;5.10;99.90;;;;;;4988961;28;20364;-70
2022/01/29 00:37:03;;;;;;;13.05;6.40;;;5.10;99.90;;;;;;4989798;28;20065;-70
2022/01/29 00:39:28;;;;;;;13.55;6.50;;;5.10;99.90;;;;;;4987916;28;20117;-70
2022/01/29 00:41:54;;;;;;;16.38;7.18;;;5.10;99.90;;;;;;4988443;28;20105;-69
2022/01/29 00:44:20;;;;;;;;;;;5.10;99.90;;;;;;4989047;28;20088;-70
2022/01/29 00:46:45;;;;;;;17.48;6.95;;;5.10;99.90;;;;;;4988833;28;19949;-70
2022/01/29 00:49:12;;;;;;;15.65;5.95;;;5.10;99.90;;;;;;4988251;28;20437;-70
2022/01/29 00:51:38;;;;;;;18.10;7.07;;;5.10;99.90;;;;;;4987510;28;20050;-70
2022/01/29 00:54:04;;;;;;;20.13;9.90;;;5.10;99.90;;;;;;4988180;28;20522;-70
2022/01/29 00:56:30;;;;;;;25.27;10.23;;;5.20;99.90;;;;;;4988940;28;20050;-70
2022/01/29 00:58:55;;;;;;;20.25;7.20;;;5.10;99.90;;;;;;4986760;28;20050;-70
2022/01/29 01:01:21;;;;;;;22.63;7.97;;;5.10;99.90;;;;;;4985589;28;20038;-70
2022/01/29 01:03:47;;;;;;;14.80;6.88;;;5.10;99.90;;;;;;4985555;28;20037;-70
2022/01/29 01:06:12;;;;;;;16.98;8.10;;;5.10;99.90;;;;;;4989328;28;20026;-69
2022/01/29 01:08:38;;;;;;;22.85;9.25;;;5.20;99.90;;;;;;4988551;28;20025;-70
2022/01/29 01:11:04;;;;;;;14.75;7.72;;;5.20;99.90;;;;;;4985379;28;20049;-69
2022/01/29 01:13:30;;;;;;;;;;;5.10;99.90;;;;;;4987702;28;20061;-70
2022/01/29 01:15:55;;;;;;;16.73;6.93;;;5.20;99.90;;;;;;4987876;28;19968;-70
2022/01/29 01:18:21;;;;;;;18.15;8.27;;;5.20;99.90;;;;;;4987473;28;20030;-69
2022/01/29 01:20:46;;;;;;;20.17;7.68;;;5.20;99.90;;;;;;4988944;28;20391;-69
2022/01/29 01:23:12;;;;;;;16.95;8.77;;;5.20;99.90;;;;;;4989401;28;20022;-69
2022/01/29 01:25:37;;;;;;;19.52;8.68;;;5.20;99.90;;;;;;4989326;28;20462;-70
2022/01/29 01:28:03;;;;;;;23.65;10.10;;;5.20;99.90;;;;;;4988695;28;20026;-70
2022/01/29 01:30:29;;;;;;;29.92;9.65;;;5.20;99.90;;;;;;4987617;28;20125;-70
2022/01/29 01:32:54;;;;;;;19.15;8.85;;;5.20;99.90;;;;;;4987599;28;20105;-69
2022/01/29 01:35:25;;;;;;;16.60;9.00;;;5.20;99.90;;;;;;4989514;28;20034;-70
2022/01/29 01:38:18;;;;;;;19.55;10.55;;;5.20;99.90;;;;;;4990422;28;20077;-70
2022/01/29 01:40:39;;;;;;;13.43;8.00;;;5.20;99.90;;;;;;4991293;28;20049;-69
2022/01/29 01:43:04;;;;;;;15.88;8.65;;;5.30;99.90;;;;;;4989424;28;20038;-70
2022/01/29 01:45:30;;;;;;;17.73;8.65;;;5.20;99.90;;;;;;4992043;28;20061;-70
2022/01/29 01:48:03;;;;;;;18.50;10.57;;;5.30;99.90;;;;;;4992154;28;20438;-70
2022/01/29 01:50:28;;;;;;;19.92;8.45;;;5.30;99.90;;;;;;4991352;28;20026;-70
2022/01/29 01:52:54;;;;;;;17.92;9.82;;;5.30;99.90;;;;;;4991388;28;20513;-70
2022/01/29 01:55:19;;;;;;;20.10;10.38;;;5.30;99.90;;;;;;4991291;28;20026;-70
2022/01/29 01:57:45;;;;;;;19.65;9.57;;;5.30;99.90;;;;;;4991214;28;20490;-70
2022/01/29 02:00:11;;;;;;;17.80;9.73;;;5.30;99.90;;;;;;4990866;28;20553;-70
2022/01/29 02:02:36;;;;;;;;;;;5.30;99.90;;;;;;4991071;28;20030;-70
2022/01/29 02:05:02;;;;;;;15.70;8.23;;;5.30;99.90;;;;;;4991239;28;19909;-70
2022/01/29 02:07:29;;;;;;;;;;;5.30;99.90;;;;;;4992574;28;20030;-69
2022/01/29 02:09:54;;;;;;;22.40;8.82;;;5.30;99.90;;;;;;4990914;28;20270;-70
2022/01/29 02:12:20;;;;;;;18.20;8.45;;;5.30;99.90;;;;;;4992213;28;20491;-70
2022/01/29 02:14:46;;;;;;;14.75;8.77;;;5.30;99.90;;;;;;4992543;28;20057;-70
2022/01/29 02:17:11;;;;;;;23.52;9.82;;;5.30;99.90;;;;;;4992037;28;20084;-70
2022/01/29 02:19:37;;;;;;;20.08;9.82;;;5.40;99.90;;;;;;4992922;28;20026;-69
2022/01/29 02:22:04;;;;;;;19.88;10.48;;;5.40;99.90;;;;;;4990818;28;20037;-70
2022/01/29 02:24:30;;;;;;;16.58;9.02;;;5.40;99.90;;;;;;4992537;28;20026;-70
2022/01/29 02:26:56;;;;;;;24.85;9.40;;;5.30;99.90;;;;;;4989807;28;20026;-70
2022/01/29 02:29:22;;;;;;;20.17;10.63;;;5.40;99.90;;;;;;4991059;28;20042;-70
2022/01/29 02:31:57;;;;;;;22.80;10.77;;;5.30;99.90;;;;;;4991035;28;20026;-69
2022/01/29 02:34:24;;;;;;;19.90;8.85;;;5.30;99.90;;;;;;4990429;28;20026;-69
2022/01/29 02:36:53;;;;;;;17.45;9.10;;;5.40;99.90;;;;;;4989609;28;20030;-70
2022/01/29 02:39:20;;;;;;;22.65;10.20;;;5.40;99.90;;;;;;4990991;28;20034;-70
2022/01/29 02:41:45;;;;;;;20.27;10.50;;;5.30;99.90;;;;;;4989975;28;20448;-70
2022/01/29 02:44:18;;;;;;;21.27;9.43;;;5.40;99.90;;;;;;4990225;28;20030;-70
2022/01/29 02:49:12;;;;;;;20.52;11.05;;;5.40;99.90;;;;;;4991785;28;20438;-69
2022/01/29 02:51:47;;;;;;;19.42;8.98;;;5.40;99.90;;;;;;4990886;28;20105;-70
2022/01/29 02:54:12;;;;;;;23.33;10.55;;;5.40;99.90;;;;;;4990963;28;20037;-70
2022/01/29 02:56:38;;;;;;;21.45;10.73;;;5.40;99.90;;;;;;4988436;28;20023;-70
2022/01/29 02:59:04;;;;;;;18.55;11.35;;;5.50;99.90;;;;;;4989187;28;20046;-70
2022/01/29 03:01:29;;;;;;;16.42;10.05;;;5.50;99.90;;;;;;4990455;28;20029;-70
2022/01/29 03:03:55;;;;;;;19.65;10.63;;;5.50;99.90;;;;;;4989676;28;20039;-70
2022/01/29 03:06:21;;;;;;;20.55;9.55;;;5.50;99.90;;;;;;4988528;28;20044;-70
2022/01/29 03:08:46;;;;;;;23.42;10.90;;;5.50;99.90;;;;;;4990387;28;20022;-69
2022/01/29 03:11:12;;;;;;;;;;;5.50;99.90;;;;;;4991070;28;20613;-69
2022/01/29 03:13:38;;;;;;;17.95;9.52;;;5.50;99.90;;;;;;4991178;28;19910;-70
2022/01/29 03:16:04;;;;;;;20.42;10.40;;;5.50;99.90;;;;;;4988231;28;20409;-70
2022/01/29 03:18:29;;;;;;;21.20;11.13;;;5.50;99.90;;;;;;4991205;28;20515;-70
2022/01/29 03:20:55;;;;;;;21.90;11.65;;;5.50;99.90;;;;;;4990589;28;20519;-70
2022/01/29 03:23:20;;;;;;;14.93;9.65;;;5.50;99.90;;;;;;4988794;28;20029;-69
2022/01/29 03:25:46;;;;;;;18.90;11.30;;;5.60;99.90;;;;;;4989502;28;20399;-69
2022/01/29 03:28:11;;;;;;;22.88;10.18;;;5.50;99.90;;;;;;4990669;28;20510;-69
2022/01/29 03:30:37;;;;;;;19.67;11.52;;;5.50;99.90;;;;;;4987949;28;20037;-70
2022/01/29 03:33:02;;;;;;;28.25;11.82;;;5.50;99.90;;;;;;4989874;28;20038;-70
2022/01/29 03:35:28;;;;;;;22.33;13.25;;;5.50;99.90;;;;;;4990116;28;20050;-70
2022/01/29 03:37:53;;;;;;;;;;;5.50;99.90;;;;;;4990178;28;20458;-69
2022/01/29 03:40:19;;;;;;;27.60;10.30;;;5.50;99.90;;;;;;4990325;28;20433;-70
2022/01/29 03:42:58;;;;;;;19.83;11.07;;;5.50;99.90;;;;;;4987903;28;20037;-70
2022/01/29 03:45:23;;;;;;;16.02;11.10;;;5.50;99.90;;;;;;4987033;28;20058;-70
2022/01/29 03:47:48;;;;;;;18.48;10.82;;;5.50;99.90;;;;;;4990287;28;20553;-70
2022/01/29 03:50:14;;;;;;;21.27;10.40;;;5.50;99.90;;;;;;4989015;28;20046;-70
2022/01/29 03:52:40;;;;;;;26.67;13.43;;;5.40;99.90;;;;;;4989798;28;20482;-69
2022/01/29 03:55:05;;;;;;;18.17;11.00;;;5.40;99.90;;;;;;4989717;28;20423;-69
2022/01/29 03:57:31;;;;;;;22.00;11.77;;;5.40;99.90;;;;;;4989232;28;20022;-70
2022/01/29 03:59:56;;;;;;;19.45;10.70;;;5.40;99.90;;;;;;4988434;28;20053;-70
2022/01/29 04:02:22;;;;;;;;;;;5.50;99.90;;;;;;4990628;28;20414;-69
2022/01/29 04:04:47;;;;;;;19.15;10.63;;;5.40;99.90;;;;;;4987818;28;19913;-70
2022/01/29 04:07:13;;;;;;;24.85;15.23;;;5.40;99.90;;;;;;4990138;28;20034;-70
2022/01/29 04:09:39;;;;;;;;;;;5.40;99.90;;;;;;4989031;28;20034;-70
2022/01/29 04:12:05;;;;;;;23.10;11.45;;;5.40;99.90;;;;;;4989231;28;20367;-70
2022/01/29 04:14:37;;;;;;;;;;;5.40;99.90;;;;;;4989512;28;20140;-70
2022/01/29 04:17:04;;;;;;;14.60;10.48;;;5.40;99.90;;;;;;4987314;28;19960;-70
2022/01/29 04:19:29;;;;;;;21.33;11.30;;;5.40;99.90;;;;;;4989065;28;20034;-70
2022/01/29 04:21:55;;;;;;;22.90;12.15;;;5.40;99.90;;;;;;4987536;28;20030;-70
2022/01/29 04:24:20;;;;;;;25.02;12.80;;;5.40;99.90;;;;;;4988904;28;20042;-70
2022/01/29 04:26:46;;;;;;;23.50;12.57;;;5.40;99.90;;;;;;4989125;28;20372;-70
2022/01/29 04:29:11;;;;;;;26.90;13.90;;;5.40;99.90;;;;;;4987874;28;20514;-70
2022/01/29 04:31:43;;;;;;;;;;;5.40;99.90;;;;;;4989673;28;20069;-70
2022/01/29 04:34:09;;;;;;;22.77;11.75;;;5.40;99.90;;;;;;4989237;28;19945;-70
2022/01/29 04:36:34;;;;;;;30.20;14.38;;;5.40;99.90;;;;;;4988576;28;20034;-70
2022/01/29 04:39:00;;;;;;;23.77;12.77;;;5.40;99.90;;;;;;4988653;28;20066;-70
2022/01/29 04:41:26;;;;;;;24.23;13.65;;;5.40;99.90;;;;;;4987876;28;20113;-70
2022/01/29 04:43:51;;;;;;;27.02;13.48;;;5.50;99.90;;;;;;4988517;28;20439;-70
2022/01/29 04:46:17;;;;;;;;;;;5.50;99.90;;;;;;4989671;28;20125;-70
2022/01/29 04:48:42;;;;;;;24.38;12.25;;;5.50;99.90;;;;;;5011453;23;20281;-78
2022/01/29 04:51:08;;;;;;;;;;;5.50;99.90;;;;;;5027137;28;20156;-75
2022/01/29 04:53:34;;;;;;;21.52;12.63;;;5.50;99.90;;;;;;5025204;28;19905;-77
2022/01/29 04:55:59;;;;;;;21.95;12.88;;;5.50;99.90;;;;;;5027460;28;20037;-76
2022/01/29 04:58:25;;;;;;;26.20;13.05;;;5.60;99.90;;;;;;5025156;28;20029;-76
2022/01/29 05:00:50;;;;;;;19.02;11.20;;;5.60;99.90;;;;;;5017929;28;20532;-76
2022/01/29 05:03:16;;;;;;;19.83;12.73;;;5.60;99.90;;;;;;5017002;28;20502;-76
2022/01/29 05:05:42;;;;;;;;;;;5.60;99.90;;;;;;5016490;28;20093;-76
2022/01/29 05:08:08;;;;;;;22.38;10.77;;;5.60;99.90;;;;;;5018127;28;20464;-75
2022/01/29 05:10:34;;;;;;;;;;;5.60;99.90;;;;;;5015117;28;20541;-76
2022/01/29 05:15:41;;;;;;;20.17;11.77;;;5.70;99.90;;;;;;5016060;28;20022;-76
2022/01/29 05:29:07;;;;;;;17.25;12.32;;;5.70;99.90;;;;;;5015874;28;20037;-76
2022/01/29 05:31:34;;;;;;;16.65;10.23;;;5.70;99.90;;;;;;5016052;28;20390;-76
2022/01/29 05:34:00;;;;;;;21.23;11.88;;;5.80;99.90;;;;;;5016402;28;20036;-76
2022/01/29 05:36:26;;;;;;;21.52;11.70;;;5.80;99.90;;;;;;5018348;28;20018;-77
2022/01/29 05:38:52;;;;;;;17.83;10.27;;;5.80;99.90;;;;;;5014848;28;20022;-77
2022/01/29 05:41:17;;;;;;;17.77;10.52;;;5.80;99.90;;;;;;5014870;28;20352;-76
2022/01/29 05:43:43;;;;;;;24.55;13.80;;;5.80;99.90;;;;;;5015431;28;20394;-76
2022/01/29 05:46:11;;;;;;;14.63;9.85;;;5.90;99.90;;;;;;5016680;28;20041;-77
2022/01/29 05:48:36;;;;;;;18.95;10.77;;;5.90;99.90;;;;;;5016172;28;20040;-76
2022/01/29 05:51:02;;;;;;;14.32;9.70;;;5.90;99.90;;;;;;5017010;28;20034;-77
2022/01/29 05:53:27;;;;;;;;;;;5.90;99.90;;;;;;5016412;28;20024;-77
2022/01/29 05:55:53;;;;;;;20.40;11.25;;;5.90;99.90;;;;;;5018381;28;19909;-76
2022/01/29 05:58:18;;;;;;;15.70;9.90;;;5.90;99.90;;;;;;5016315;28;20116;-77
2022/01/29 06:00:43;;;;;;;;;;;6.00;99.90;;;;;;5016102;28;20522;-76
2022/01/29 06:03:10;;;;;;;17.33;9.98;;;6.00;99.90;;;;;;5016958;28;19935;-77
2022/01/29 06:05:36;;;;;;;14.70;8.80;;;6.00;99.90;;;;;;5017567;28;20056;-77
2022/01/29 06:08:03;;;;;;;15.77;10.15;;;6.00;99.90;;;;;;5016357;28;20030;-77
2022/01/29 06:10:29;;;;;;;23.90;11.63;;;6.10;99.90;;;;;;5014956;28;20390;-76
2022/01/29 06:12:58;;;;;;;;;;;6.10;99.90;;;;;;5016992;28;20530;-76
2022/01/29 06:15:23;;;;;;;16.52;9.38;;;6.10;99.90;;;;;;5016615;28;19913;-76
2022/01/29 06:17:49;;;;;;;24.38;12.40;;;6.10;99.90;;;;;;5015847;28;20025;-77
2022/01/29 06:20:14;;;;;;;21.48;11.18;;;6.10;99.90;;;;;;5018964;28;20490;-77
2022/01/29 06:22:43;;;;;;;22.65;10.73;;;6.20;99.90;;;;;;5018123;28;20032;-76
2022/01/29 06:25:09;;;;;;;27.30;13.40;;;6.20;99.90;;;;;;5020319;28;20041;-76
2022/01/29 06:27:35;;;;;;;19.80;10.23;;;6.20;99.90;;;;;;5019218;28;20029;-77
2022/01/29 06:30:00;;;;;;;16.30;9.85;;;6.20;99.90;;;;;;5019147;28;20026;-76
2022/01/29 06:32:26;;;;;;;21.23;10.48;;;6.20;99.90;;;;;;5019872;28;20512;-76
2022/01/29 06:34:51;;;;;;;;;;;6.30;99.90;;;;;;5019965;28;20030;-76
2022/01/29 06:37:17;;;;;;;22.85;9.57;;;6.30;99.90;;;;;;5018319;28;19909;-76
2022/01/29 06:39:43;;;;;;;15.60;9.40;;;6.30;99.90;;;;;;5020999;28;20371;-76
2022/01/29 06:42:08;;;;;;;16.27;9.60;;;6.30;99.90;;;;;;5018429;28;20038;-76
2022/01/29 06:44:34;;;;;;;20.08;9.45;;;6.40;99.90;;;;;;5021135;28;20014;-76
2022/01/29 06:46:59;;;;;;;18.58;8.63;;;6.40;99.90;;;;;;5020637;28;20494;-76
2022/01/29 06:49:25;;;;;;;14.23;8.57;;;6.40;99.90;;;;;;5021482;28;20037;-76
2022/01/29 06:51:53;;;;;;;12.50;8.88;;;6.40;99.90;;;;;;5017090;28;20488;-76
2022/01/29 06:54:18;;;;;;;14.88;9.63;;;6.40;99.90;;;;;;5020810;28;20142;-76
2022/01/29 06:56:44;;;;;;;16.83;8.75;;;6.40;99.90;;;;;;5019844;28;20138;-77
2022/01/29 06:59:09;;;;;;;13.18;10.27;;;6.40;99.90;;;;;;5020926;28;20553;-77
2022/01/29 07:01:35;;;;;;;14.82;8.32;;;6.40;99.90;;;;;;5017555;28;20017;-77
2022/01/29 07:04:00;;;;;;;16.33;10.90;;;6.40;99.90;;;;;;5021099;28;20037;-78
2022/01/29 07:06:26;;;;;;;14.65;9.68;;;6.50;99.90;;;;;;5015849;28;20050;-77
2022/01/29 07:08:52;;;;;;;17.75;9.48;;;6.50;99.90;;;;;;5012164;28;20028;-77
2022/01/29 07:11:20;;;;;;;19.92;8.75;;;6.50;99.90;;;;;;5011271;28;21302;-76
2022/01/29 07:13:46;;;;;;;14.23;8.57;;;6.50;99.90;;;;;;5014926;28;20099;-76
2022/01/29 07:16:11;;;;;;;14.25;9.48;;;6.50;99.90;;;;;;5018903;28;20117;-76
2022/01/29 07:18:37;;;;;;;15.90;9.25;;;6.50;99.90;;;;;;5018572;28;20041;-77
2022/01/29 07:21:02;;;;;;;;;;;6.60;99.90;;;;;;5019081;28;20091;-77
2022/01/29 07:23:28;;;;;;;13.45;8.27;;;6.50;99.90;;;;;;5018905;28;20003;-77
2022/01/29 07:25:53;;;;;;;18.70;8.32;;;6.60;99.90;;;;;;5016941;28;20164;-76
2022/01/29 07:28:19;;;;;;;29.08;9.65;;;6.60;99.90;;;;;;5017901;28;20228;-76
2022/01/29 07:30:45;;;;;;;16.10;10.15;;;6.60;99.90;;;;;;5015818;28;20014;-75
2022/01/29 07:33:11;;;;;;;15.05;8.75;;;6.70;99.90;;;;;;5015699;28;20026;-76
2022/01/29 07:35:36;;;;;;;17.45;8.60;;;6.70;99.90;;;;;;5016872;28;20530;-77
2022/01/29 07:38:02;;;;;;;15.98;9.32;;;6.70;99.90;;;;;;5019160;28;20124;-77
2022/01/29 07:40:28;;;;;;;13.00;10.27;;;6.70;99.90;;;;;;5018646;28;20021;-76
2022/01/29 07:42:53;;;;;;;17.00;10.52;;;6.70;99.90;;;;;;5015413;28;20092;-75
2022/01/29 07:45:19;;;;;;;14.70;8.20;;;6.70;99.90;;;;;;5018288;28;20029;-76
2022/01/29 07:47:44;;;;;;;;;;;6.70;99.90;;;;;;5018927;28;20018;-76
2022/01/29 07:50:09;;;;;;;18.88;10.27;;;6.80;99.90;;;;;;5019231;28;20265;-77
2022/01/29 07:52:35;;;;;;;14.20;8.77;;;6.80;99.90;;;;;;5019279;28;20545;-77
2022/01/29 07:55:01;;;;;;;15.02;8.15;;;6.80;99.90;;;;;;5019402;28;20128;-76
2022/01/29 07:57:27;;;;;;;13.05;8.13;;;6.80;99.90;;;;;;5017989;28;20033;-75
2022/01/29 07:59:53;;;;;;;9.85;7.15;;;6.90;99.90;;;;;;5013068;28;20080;-76
2022/01/29 08:02:19;;;;;;;10.50;8.38;;;6.90;99.90;;;;;;5017707;28;20033;-76
2022/01/29 08:04:44;;;;;;;10.52;7.40;;;6.90;99.90;;;;;;5018870;28;20029;-76
2022/01/29 08:07:10;;;;;;;12.93;7.85;;;6.90;99.90;;;;;;5018257;28;20112;-76
2022/01/29 08:09:35;;;;;;;11.80;8.27;;;6.90;99.90;;;;;;5015685;28;20042;-75
2022/01/29 08:12:01;;;;;;;9.98;6.70;;;7.00;99.90;;;;;;5014868;28;20113;-74
2022/01/29 08:14:26;;;;;;;15.98;8.00;;;6.90;99.90;;;;;;5016498;28;20033;-75
2022/01/29 08:16:52;;;;;;;10.30;7.10;;;7.00;99.90;;;;;;5012563;28;20037;-76
2022/01/29 08:19:17;;;;;;;13.15;6.95;;;7.00;99.90;;;;;;5013428;28;20492;-76
2022/01/29 08:21:43;;;;;;;8.43;7.15;;;7.00;99.90;;;;;;5012957;28;20025;-76
2022/01/29 08:24:08;;;;;;;12.68;8.55;;;7.00;99.90;;;;;;5011486;28;20034;-75
2022/01/29 08:26:34;;;;;;;11.57;6.95;;;7.10;99.90;;;;;;5015551;28;20497;-74
2022/01/29 08:29:00;;;;;;;8.65;6.50;;;7.10;99.90;;;;;;5013475;28;20056;-74
2022/01/29 08:31:25;;;;;;;8.50;6.97;;;7.10;99.90;;;;;;5014887;28;20037;-74
2022/01/29 08:33:51;;;;;;;11.60;7.40;;;7.20;99.90;;;;;;5015104;28;20113;-75
2022/01/29 08:36:16;;;;;;;;;;;7.20;99.90;;;;;;5015575;28;20029;-75
2022/01/29 08:38:42;;;;;;;9.65;6.93;;;7.20;99.90;;;;;;5011790;28;19989;-74
2022/01/29 08:41:07;;;;;;;;;;;7.20;99.90;;;;;;5014243;28;20084;-75
2022/01/29 08:43:33;;;;;;;9.15;6.72;;;7.30;99.90;;;;;;5013007;28;20278;-76
2022/01/29 08:45:59;;;;;;;;;;;7.30;99.90;;;;;;5015670;28;20390;-75
2022/01/29 08:48:24;;;;;;;10.98;6.20;;;7.30;99.90;;;;;;5014902;28;19913;-75
2022/01/29 08:50:50;;;;;;;8.00;6.15;;;7.30;99.90;;;;;;5015072;28;20379;-75
2022/01/29 08:53:19;;;;;;;9.00;5.75;;;7.30;99.90;;;;;;5012902;28;20113;-74
2022/01/29 08:55:45;;;;;;;10.13;6.60;;;7.30;99.90;;;;;;5013993;28;20173;-74
2022/01/29 08:58:11;;;;;;;8.45;6.50;;;7.30;99.90;;;;;;5013911;28;20029;-76
2022/01/29 09:00:44;;;;;;;9.25;6.70;;;7.40;99.90;;;;;;5014895;28;20091;-74
2022/01/29 09:03:12;;;;;;;11.00;7.32;;;7.40;99.90;;;;;;5017073;28;20367;-74
2022/01/29 09:05:37;;;;;;;8.93;6.68;;;7.40;99.90;;;;;;5016812;28;20455;-76
2022/01/29 09:08:04;;;;;;;10.40;7.63;;;7.50;99.90;;;;;;5014172;28;20042;-76
2022/01/29 09:10:31;;;;;;;10.73;6.80;;;7.50;99.90;;;;;;5015951;28;20040;-74
2022/01/29 09:12:56;;;;;;;9.52;6.35;;;7.50;99.90;;;;;;5014610;28;20022;-74
2022/01/29 09:15:22;;;;;;;9.57;6.03;;;7.50;99.90;;;;;;5018068;28;20382;-74
2022/01/29 09:17:47;;;;;;;10.32;7.68;;;7.60;99.90;;;;;;5017351;28;20478;-74
2022/01/29 09:20:15;;;;;;;7.25;6.28;;;7.60;99.90;;;;;;5017563;28;20434;-74
2022/01/29 09:22:41;;;;;;;10.77;6.78;;;7.60;99.90;;;;;;5017363;28;20041;-74
2022/01/29 09:25:07;;;;;;;12.85;8.02;;;7.60;99.90;;;;;;5019594;28;20405;-73
2022/01/29 09:27:34;;;;;;;11.35;7.82;;;7.60;99.90;;;;;;5016534;28;20487;-74
2022/01/29 09:29:59;;;;;;;12.75;8.10;;;7.60;99.90;;;;;;5015738;28;20529;-73
2022/01/29 09:32:25;;;;;;;;;;;7.60;99.90;;;;;;5017960;28;20026;-74
2022/01/29 09:34:51;;;;;;;13.75;10.63;;;7.70;99.90;;;;;;5014682;28;19917;-74
2022/01/29 09:37:16;;;;;;;18.52;10.48;;;7.70;99.90;;;;;;5015154;28;20045;-75
2022/01/29 09:39:45;;;;;;;;;;;7.70;99.90;;;;;;5017777;28;20701;-76
2022/01/29 09:42:11;;;;;;;16.00;8.77;;;7.70;99.90;;;;;;5010206;28;20025;-76
2022/01/29 09:44:36;;;;;;;;;;;7.70;99.90;;;;;;5014148;28;20120;-75
2022/01/29 09:47:03;;;;;;;16.65;11.00;;;7.80;99.90;;;;;;5014458;28;19914;-77
2022/01/29 09:49:33;;;;;;;18.33;11.23;;;7.80;99.90;;;;;;5013203;28;20141;-75
2022/01/29 09:51:59;;;;;;;18.58;11.05;;;7.80;99.90;;;;;;5014810;28;20105;-76
2022/01/29 09:54:24;;;;;;;;;;;7.80;99.90;;;;;;5017651;28;20144;-74
2022/01/29 09:56:50;;;;;;;16.70;9.80;;;7.80;99.90;;;;;;5015822;28;19913;-74
2022/01/29 09:59:15;;;;;;;;;;;7.80;99.90;;;;;;5021449;28;20022;-76
2022/01/29 10:01:41;;;;;;;20.63;11.93;;;7.80;99.90;;;;;;5015284;28;19975;-75
2022/01/29 10:04:07;;;;;;;17.70;10.35;;;7.90;99.90;;;;;;5018048;28;20025;-75
2022/01/29 10:06:34;;;;;;;23.48;10.90;;;7.90;99.90;;;;;;5019995;28;20037;-75
2022/01/29 10:09:01;;;;;;;21.23;11.50;;;7.90;99.90;;;;;;5019865;28;20060;-75
2022/01/29 10:11:27;;;;;;;15.02;9.63;;;7.90;99.90;;;;;;5019180;28;20052;-76
2022/01/29 10:14:02;;;;;;;17.75;10.77;;;7.90;99.90;;;;;;5017888;28;20029;-75
2022/01/29 10:16:29;;;;;;;19.08;11.90;;;7.90;99.90;;;;;;5017231;28;20293;-75
2022/01/29 10:19:00;;;;;;;23.17;10.60;;;7.90;99.90;;;;;;5016864;28;20054;-75
2022/01/29 10:21:29;;;;;;;20.92;10.93;;;7.90;99.90;;;;;;5018266;28;20624;-76
2022/01/29 10:24:07;;;;;;;16.98;10.25;;;7.90;99.90;;;;;;5020828;28;20057;-76
2022/01/29 10:26:40;;;;;;;15.95;11.43;;;8.00;99.90;;;;;;5018247;28;20110;-77
2022/01/29 10:29:15;;;;;;;17.23;10.85;;;8.00;99.90;;;;;;5012321;28;20029;-77
2022/01/29 10:31:51;;;;;;;17.95;10.00;;;8.00;99.90;;;;;;5018187;28;20029;-76
2022/01/29 10:34:24;;;;;;;;;;;8.00;99.90;;;;;;5016534;28;20053;-74
2022/01/29 10:37:14;;;;;;;15.48;9.18;;;8.30;99.90;;;;;;5018430;28;20286;-76
2022/01/29 10:39:56;;;;;;;12.90;8.63;;;8.70;99.90;;;;;;5016282;28;20034;-75
2022/01/29 10:42:23;;;;;;;14.55;9.88;;;8.70;99.90;;;;;;5017805;28;20048;-77
2022/01/29 10:44:52;;;;;;;12.57;8.27;;;8.50;99.90;;;;;;5020421;28;20034;-75
2022/01/29 10:47:17;;;;;;;12.85;7.78;;;8.50;99.90;;;;;;5019327;28;20099;-75
2022/01/29 10:49:51;;;;;;;;;;;8.40;99.90;;;;;;5016782;28;20084;-75
2022/01/29 10:52:17;;;;;;;14.93;8.23;;;8.40;99.90;;;;;;5014164;28;19952;-76
2022/01/29 10:54:47;;;;;;;15.50;9.52;;;8.40;99.90;;;;;;5015313;28;20017;-75
2022/01/29 10:57:17;;;;;;;14.75;7.63;;;8.40;99.90;;;;;;5015982;28;20403;-76
2022/01/29 10:59:51;;;;;;;10.85;7.15;;;8.40;99.90;;;;;;5016807;28;20534;-75
2022/01/29 11:02:18;;;;;;;15.00;7.15;;;8.40;99.90;;;;;;5016912;28;20021;-76
2022/01/29 11:04:44;;;;;;;13.18;7.07;;;8.40;99.90;;;;;;5017872;28;20566;-75
2022/01/29 11:07:25;;;;;;;;;;;8.50;99.90;;;;;;5017250;28;20433;-75
2022/01/29 11:09:51;;;;;;;7.25;5.07;;;8.50;99.90;;;;;;5017456;28;19909;-76
2022/01/29 11:12:21;;;;;;;;;;;8.50;99.90;;;;;;5018548;28;20032;-75
2022/01/29 11:14:49;;;;;;;13.27;5.55;;;8.60;99.90;;;;;;5013767;28;20314;-75
2022/01/29 11:17:16;;;;;;;8.15;5.30;;;8.60;99.90;;;;;;5015433;28;20029;-76
2022/01/29 11:19:41;;;;;;;19.45;5.50;;;8.70;99.90;;;;;;5017986;28;20476;-76
2022/01/29 11:22:08;;;;;;;;;;;8.70;99.90;;;;;;5016860;28;20030;-75
2022/01/29 11:24:36;;;;;;;4.10;3.65;;;8.60;99.90;;;;;;5016298;28;20163;-76
2022/01/29 11:27:17;;;;;;;6.65;4.20;;;8.70;99.90;;;;;;5016891;28;20034;-74
2022/01/29 11:29:59;;;;;;;9.55;4.97;;;8.70;99.90;;;;;;5017877;28;20025;-73
2022/01/29 11:32:32;;;;;;;6.75;4.03;;;8.70;99.90;;;;;;5017774;28;20025;-75
2022/01/29 11:35:20;;;;;;;6.05;3.53;;;8.70;99.90;;;;;;5017515;28;20120;-75
2022/01/29 11:37:53;;;;;;;5.32;3.30;;;8.70;99.90;;;;;;5017952;28;20100;-75
2022/01/29 11:40:26;;;;;;;8.05;3.63;;;8.80;99.90;;;;;;5010510;28;20068;-75
2022/01/29 11:42:53;;;;;;;6.05;3.97;;;8.80;99.90;;;;;;5015978;28;20022;-74
2022/01/29 11:45:44;;;;;;;5.57;4.13;;;8.80;99.90;;;;;;5016592;28;20110;-75
2022/01/29 11:48:33;;;;;;;6.93;2.80;;;8.80;99.90;;;;;;5015553;28;20391;-74
2022/01/29 11:51:07;;;;;;;5.15;2.78;;;8.80;99.90;;;;;;5016141;28;20029;-74
2022/01/29 11:53:44;;;;;;;4.60;2.70;;;8.90;99.90;;;;;;5018418;28;20105;-74
2022/01/29 11:56:31;;;;;;;4.25;2.42;;;8.90;99.90;;;;;;5017237;28;20029;-76
2022/01/29 11:59:19;;;;;;;5.65;2.95;;;8.90;99.90;;;;;;5015360;28;20021;-74
2022/01/29 12:02:05;;;;;;;5.05;2.75;;;9.00;99.90;;;;;;5016284;28;20068;-74
2022/01/29 12:04:49;;;;;;;7.32;2.72;;;9.00;99.90;;;;;;5016920;28;20061;-75
2022/01/29 12:07:23;;;;;;;4.32;2.30;;;9.10;99.90;;;;;;5015474;28;20033;-73
2022/01/29 12:09:53;;;;;;;5.05;3.17;;;9.10;99.90;;;;;;5015946;28;20033;-74
2022/01/29 12:12:27;;;;;;;4.68;2.58;;;9.20;99.90;;;;;;5012629;28;20025;-73
2022/01/29 12:15:11;;;;;;;5.05;2.70;;;9.30;99.90;;;;;;5012738;28;20029;-74
2022/01/29 12:17:43;;;;;;;3.33;1.80;;;9.40;99.90;;;;;;5018227;28;20049;-73
2022/01/29 12:20:10;;;;;;;2.90;2.00;;;9.40;99.90;;;;;;5018044;28;20030;-74
2022/01/29 12:22:38;;;;;;;4.60;2.28;;;9.40;99.90;;;;;;5016883;28;20090;-74
2022/01/29 12:25:09;;;;;;;5.65;1.52;;;9.40;99.90;;;;;;5017543;28;20036;-74
2022/01/29 12:27:50;;;;;;;3.95;2.22;;;9.40;99.90;;;;;;5011910;28;20026;-74
2022/01/29 12:30:26;;;;;;;3.42;2.20;;;9.40;99.90;;;;;;5016248;28;20080;-73
2022/01/29 12:33:12;;;;;;;2.80;2.20;;;9.40;99.90;;;;;;5016684;28;20021;-73
2022/01/29 12:35:41;;;;;;;2.07;1.33;;;9.40;99.90;;;;;;5017647;28;20022;-73
2022/01/29 12:38:22;;;;;;;3.63;1.77;;;9.40;99.90;;;;;;5016832;28;20048;-73
2022/01/29 12:40:56;;;;;;;3.58;1.85;;;9.40;99.90;;;;;;5017791;28;20026;-73
2022/01/29 12:43:23;;;;;;;3.15;1.55;;;9.40;99.90;;;;;;5014927;28;20490;-73
2022/01/29 12:45:50;;;;;;;3.08;1.70;;;9.40;99.90;;;;;;5017454;28;20034;-74
2022/01/29 12:48:17;;;;;;;4.47;1.85;;;9.40;99.90;;;;;;5015994;28;20029;-73
2022/01/29 12:50:44;;;;;;;2.33;1.42;;;9.40;99.90;;;;;;5017843;28;20027;-73
2022/01/29 12:53:19;;;;;;;2.13;1.23;;;9.40;99.90;;;;;;5016276;28;20478;-73
2022/01/29 12:55:58;;;;;;;7.22;4.72;;;9.40;99.90;;;;;;5017437;28;20101;-74
2022/01/29 12:58:34;;;;;;;2.20;1.45;;;9.40;99.90;;;;;;5015436;28;20033;-74
2022/01/29 13:01:05;;;;;;;1.83;1.38;;;9.40;99.90;;;;;;5015725;28;20255;-73
2022/01/29 13:03:31;;;;;;;3.15;1.45;;;9.40;99.90;;;;;;5014827;28;20324;-73
2022/01/29 13:06:02;;;;;;;;;;;9.50;99.90;;;;;;5018318;28;20025;-73
2022/01/29 13:08:27;;;;;;;1.98;1.42;;;9.40;99.90;;;;;;5017256;28;20369;-74
2022/01/29 13:10:52;;;;;;;;;;;9.40;99.90;;;;;;5017907;28;20026;-74
2022/01/29 13:13:30;;;;;;;3.85;1.60;;;9.40;99.90;;;;;;5016201;28;20015;-73
2022/01/29 13:15:55;;;;;;;4.13;1.58;;;9.50;99.90;;;;;;5017087;28;20459;-74